Time;durP1;ratioP1;P1;durP2;ratioP2;P2;SDS_P1;SDS_P2;PMS_P1;PMS_P2;Temp;Humidity;BMP_temperature;BMP_pressure;BME280_temperature;BME280_humidity;BME280_pressure;Samples;Min_cycle;Max_cycle;Signal;HPM_P1;HPM_P2
2023/08/17 00:01:45;;;;;;;3.73;3.43;;;21.40;1.00;;;;;;5046654;28;20480;-74
2023/08/17 00:04:12;;;;;;;3.70;3.40;;;21.30;1.00;;;;;;5053207;27;20456;-73
2023/08/17 00:06:39;;;;;;;7.77;3.60;;;21.30;1.00;;;;;;5059891;27;20481;-75
2023/08/17 00:09:07;;;;;;;4.57;3.70;;;21.30;1.00;;;;;;5055509;27;20482;-74
2023/08/17 00:11:34;;;;;;;4.43;3.57;;;21.30;1.00;;;;;;5055144;28;20493;-74
2023/08/17 00:14:01;;;;;;;4.63;4.10;;;21.30;1.00;;;;;;5052803;27;20482;-74
2023/08/17 00:16:29;;;;;;;6.43;4.00;;;21.20;1.00;;;;;;5049620;28;20610;-73
2023/08/17 00:18:56;;;;;;;4.60;3.33;;;21.20;1.00;;;;;;5053524;27;20469;-76
2023/08/17 00:21:23;;;;;;;6.13;4.30;;;21.20;1.00;;;;;;5050400;28;20465;-72
2023/08/17 00:23:50;;;;;;;4.10;3.80;;;21.20;1.00;;;;;;5047609;27;21056;-74
2023/08/17 00:26:17;;;;;;;4.90;4.50;;;21.10;1.00;;;;;;5050752;27;20620;-76
2023/08/17 00:28:44;;;;;;;4.03;3.63;;;21.10;1.00;;;;;;5051567;27;20971;-75
2023/08/17 00:31:12;;;;;;;5.23;3.93;;;21.00;1.00;;;;;;5052533;28;20499;-74
2023/08/17 00:33:40;;;;;;;4.80;4.10;;;21.00;1.00;;;;;;5053711;28;20556;-76
2023/08/17 00:36:10;;;;;;;4.17;3.50;;;20.90;1.00;;;;;;5055953;28;20592;-73
2023/08/17 00:38:38;;;;;;;4.23;3.53;;;20.90;1.00;;;;;;5056644;27;20460;-74
2023/08/17 00:41:05;;;;;;;5.83;5.33;;;20.90;1.00;;;;;;5040516;28;20468;-76
2023/08/17 00:43:32;;;;;;;5.03;4.23;;;20.80;1.00;;;;;;5059428;27;20556;-76
2023/08/17 00:46:00;;;;;;;5.77;3.87;;;20.80;1.00;;;;;;5054710;27;21084;-74
2023/08/17 00:48:28;;;;;;;4.83;3.57;;;20.80;1.00;;;;;;5050689;28;20466;-73
2023/08/17 00:50:58;;;;;;;4.80;4.33;;;20.70;1.00;;;;;;5056409;28;20915;-74
2023/08/17 00:53:27;;;;;;;4.57;4.27;;;20.60;1.00;;;;;;5053285;27;20453;-76
2023/08/17 00:55:54;;;;;;;4.47;4.10;;;20.50;1.00;;;;;;5056538;27;20545;-74
2023/08/17 00:58:22;;;;;;;5.67;4.03;;;20.60;1.00;;;;;;5054842;28;20613;-74
2023/08/17 01:00:49;;;;;;;4.73;3.70;;;20.50;1.00;;;;;;5050253;28;20485;-74
2023/08/17 01:03:17;;;;;;;5.53;4.10;;;20.50;1.00;;;;;;5069445;22;20560;-72
2023/08/17 01:05:44;;;;;;;5.30;3.53;;;20.50;1.00;;;;;;5036204;28;20601;-70
2023/08/17 01:08:13;;;;;;;4.60;3.60;;;20.50;1.00;;;;;;5031105;28;20539;-71
2023/08/17 01:10:52;;;;;;;4.10;3.70;;;20.60;1.00;;;;;;5029177;28;21040;-72
2023/08/17 01:13:25;;;;;;;4.20;3.80;;;20.60;1.00;;;;;;5032309;28;21034;-71
2023/08/17 01:15:57;;;;;;;4.10;3.70;;;20.60;1.00;;;;;;5030480;28;20464;-72
2023/08/17 01:18:30;;;;;;;4.80;3.90;;;20.60;1.00;;;;;;5031317;28;20999;-72
2023/08/17 01:20:58;;;;;;;5.00;3.97;;;20.50;1.00;;;;;;5029966;28;21788;-71
2023/08/17 01:23:27;;;;;;;4.30;3.90;;;20.50;1.00;;;;;;5032172;28;20487;-70
2023/08/17 01:25:55;;;;;;;7.13;5.23;;;20.40;1.00;;;;;;5033914;28;20469;-70
2023/08/17 01:28:22;;;;;;;4.97;4.50;;;20.30;1.00;;;;;;5031248;28;20552;-71
2023/08/17 01:30:56;;;;;;;6.47;3.90;;;20.30;1.00;;;;;;5029610;28;20462;-71
2023/08/17 01:33:29;;;;;;;5.73;3.93;;;20.30;1.00;;;;;;5034204;28;20569;-70
2023/08/17 01:36:06;;;;;;;4.63;3.73;;;20.30;1.00;;;;;;5029475;28;20485;-73
2023/08/17 01:38:36;;;;;;;6.97;4.40;;;20.30;1.00;;;;;;5033121;28;20464;-72
2023/08/17 01:41:05;;;;;;;4.53;3.87;;;20.20;1.00;;;;;;5030624;28;21052;-70
2023/08/17 01:43:32;;;;;;;4.43;3.90;;;20.20;1.00;;;;;;5028200;28;20879;-71
2023/08/17 01:46:01;;;;;;;4.30;3.90;;;20.30;1.00;;;;;;5028264;28;20450;-72
2023/08/17 01:48:27;;;;;;;4.70;3.83;;;20.20;1.00;;;;;;5026151;28;20465;-72
2023/08/17 01:50:54;;;;;;;5.13;3.87;;;20.20;1.00;;;;;;5032174;28;20477;-73
2023/08/17 01:53:21;;;;;;;4.23;3.90;;;20.20;1.00;;;;;;5033984;28;20551;-72
2023/08/17 01:55:50;;;;;;;4.57;4.10;;;20.20;1.00;;;;;;5026634;28;20557;-69
2023/08/17 01:58:16;;;;;;;5.77;4.90;;;20.20;1.00;;;;;;5031554;28;20521;-72
2023/08/17 02:00:43;;;;;;;6.70;4.43;;;20.10;1.00;;;;;;5027983;28;20977;-72
2023/08/17 02:03:10;;;;;;;4.20;3.90;;;20.00;1.00;;;;;;5028331;28;20463;-71
2023/08/17 02:05:37;;;;;;;7.00;4.50;;;20.00;1.00;;;;;;5030867;28;20566;-71
2023/08/17 02:08:04;;;;;;;5.30;4.53;;;20.00;1.00;;;;;;5025853;28;20455;-72
2023/08/17 02:10:31;;;;;;;4.40;3.50;;;20.00;1.00;;;;;;5035565;28;21306;-71
2023/08/17 02:12:59;;;;;;;3.83;3.53;;;20.00;1.00;;;;;;5035067;28;20556;-69
2023/08/17 02:15:26;;;;;;;4.37;4.03;;;20.00;1.00;;;;;;5039152;28;20562;-71
2023/08/17 02:17:53;;;;;;;5.23;4.13;;;20.00;1.00;;;;;;5040392;28;20454;-70
2023/08/17 02:20:20;;;;;;;5.13;3.83;;;19.90;1.00;;;;;;5037356;28;20992;-71
2023/08/17 02:22:47;;;;;;;6.60;4.67;;;20.00;1.00;;;;;;5039365;28;20431;-72
2023/08/17 02:25:14;;;;;;;4.57;4.03;;;20.00;1.00;;;;;;5040786;28;20468;-70
2023/08/17 02:27:41;;;;;;;4.87;4.00;;;20.00;1.00;;;;;;5033812;28;20462;-71
2023/08/17 02:30:12;;;;;;;6.67;3.93;;;20.00;1.00;;;;;;5036227;28;20508;-71
2023/08/17 02:32:38;;;;;;;6.20;4.30;;;20.00;1.00;;;;;;5028257;28;20455;-72
2023/08/17 02:35:06;;;;;;;6.07;4.47;;;20.00;1.00;;;;;;5021808;28;20465;-71
2023/08/17 02:37:34;;;;;;;4.87;3.77;;;19.90;1.00;;;;;;5033488;28;20520;-71
2023/08/17 02:40:02;;;;;;;7.40;4.50;;;19.90;1.00;;;;;;5028709;28;20481;-70
2023/08/17 02:42:30;;;;;;;4.43;4.03;;;19.90;1.00;;;;;;5032471;28;20476;-72
2023/08/17 02:44:56;;;;;;;5.57;4.57;;;19.90;1.00;;;;;;5030049;28;21061;-71
2023/08/17 02:47:25;;;;;;;8.03;4.43;;;19.90;1.00;;;;;;5030577;28;20560;-72
2023/08/17 02:49:52;;;;;;;5.03;4.50;;;19.90;1.00;;;;;;5030005;28;20444;-72
2023/08/17 02:52:19;;;;;;;4.90;4.23;;;19.90;1.00;;;;;;5029059;28;20511;-72
2023/08/17 02:54:46;;;;;;;5.87;4.20;;;19.80;1.00;;;;;;5032442;28;20474;-73
2023/08/17 02:57:13;;;;;;;5.10;4.70;;;19.80;1.00;;;;;;5022013;28;20461;-72
2023/08/17 02:59:40;;;;;;;7.10;4.60;;;19.70;1.00;;;;;;5032343;28;20480;-70
2023/08/17 03:02:07;;;;;;;4.50;4.10;;;19.70;1.00;;;;;;5030874;28;20809;-71
2023/08/17 03:04:36;;;;;;;5.17;4.27;;;19.70;1.00;;;;;;5029516;28;21223;-71
2023/08/17 03:07:03;;;;;;;4.87;4.10;;;19.70;1.00;;;;;;5030520;28;20975;-71
2023/08/17 03:09:30;;;;;;;7.13;3.90;;;19.60;1.00;;;;;;5032388;28;20473;-72
2023/08/17 03:11:57;;;;;;;4.33;3.90;;;19.70;1.00;;;;;;5034711;28;20479;-70
2023/08/17 03:14:23;;;;;;;5.43;3.97;;;19.70;1.00;;;;;;5028283;28;21335;-71
2023/08/17 03:16:50;;;;;;;3.80;3.33;;;19.70;1.00;;;;;;5031831;28;20642;-71
2023/08/17 03:19:17;;;;;;;6.30;5.70;;;19.70;1.00;;;;;;5030616;28;20515;-70
2023/08/17 03:21:46;;;;;;;3.93;3.60;;;19.80;1.00;;;;;;5030973;28;20968;-71
2023/08/17 03:24:13;;;;;;;4.17;3.70;;;19.80;1.00;;;;;;5032494;28;21580;-70
2023/08/17 03:26:40;;;;;;;5.10;4.10;;;19.80;1.00;;;;;;5032661;28;20587;-71
2023/08/17 03:29:08;;;;;;;4.10;3.70;;;19.80;1.00;;;;;;5033326;28;20557;-71
2023/08/17 03:31:35;;;;;;;3.97;3.57;;;19.80;1.00;;;;;;5035158;28;20469;-71
2023/08/17 03:34:02;;;;;;;5.70;3.50;;;19.80;1.00;;;;;;5043219;28;20546;-70
2023/08/17 03:36:29;;;;;;;3.83;3.40;;;19.70;1.00;;;;;;5044031;28;20575;-72
2023/08/17 03:38:57;;;;;;;4.73;3.90;;;19.70;1.00;;;;;;5039873;28;20516;-71
2023/08/17 03:41:25;;;;;;;4.87;3.80;;;19.70;1.00;;;;;;5041866;28;21437;-71
2023/08/17 03:43:52;;;;;;;4.43;4.03;;;19.70;1.00;;;;;;5037608;28;20555;-71
2023/08/17 03:46:19;;;;;;;7.50;3.87;;;19.70;1.00;;;;;;5037487;28;20622;-71
2023/08/17 03:48:45;;;;;;;4.47;3.60;;;19.70;1.00;;;;;;5036775;28;20555;-71
2023/08/17 03:51:12;;;;;;;4.60;4.20;;;19.70;1.00;;;;;;5038213;28;20592;-71
2023/08/17 03:53:39;;;;;;;7.60;4.40;;;19.70;1.00;;;;;;5040693;28;20457;-73
2023/08/17 03:56:07;;;;;;;5.00;4.07;;;19.70;1.00;;;;;;5033510;28;20567;-71
2023/08/17 03:58:34;;;;;;;3.57;3.27;;;19.70;1.00;;;;;;5042470;28;20534;-71
2023/08/17 04:01:03;;;;;;;4.70;3.13;;;19.70;1.00;;;;;;5032146;28;20471;-73
2023/08/17 04:03:30;;;;;;;4.93;3.07;;;19.70;1.00;;;;;;5033710;28;21182;-70
2023/08/17 04:05:57;;;;;;;4.30;3.13;;;19.70;1.00;;;;;;5033955;28;20544;-70
2023/08/17 04:08:24;;;;;;;3.97;3.40;;;19.70;1.00;;;;;;5035537;28;20465;-72
2023/08/17 04:10:51;;;;;;;5.53;3.80;;;19.80;1.00;;;;;;5032317;28;20517;-71
2023/08/17 04:13:19;;;;;;;3.83;3.37;;;19.80;1.00;;;;;;5024671;28;20475;-72
2023/08/17 04:15:46;;;;;;;4.20;3.83;;;19.80;1.00;;;;;;5031554;28;20932;-71
2023/08/17 04:18:13;;;;;;;7.63;4.67;;;19.80;1.00;;;;;;5038334;28;20499;-71
2023/08/17 04:20:40;;;;;;;5.07;3.60;;;19.90;1.00;;;;;;5036928;28;20444;-72
2023/08/17 04:23:07;;;;;;;4.80;3.27;;;19.90;1.00;;;;;;5037713;28;20959;-70
2023/08/17 04:25:34;;;;;;;8.13;3.80;;;19.90;1.00;;;;;;5037704;28;20565;-71
2023/08/17 04:28:00;;;;;;;4.10;3.70;;;19.90;1.00;;;;;;5034192;28;20587;-70
2023/08/17 04:30:28;;;;;;;5.50;3.20;;;19.90;1.00;;;;;;5034498;28;20559;-71
2023/08/17 04:32:55;;;;;;;3.67;3.37;;;19.90;1.00;;;;;;5035504;28;21053;-71
2023/08/17 04:35:22;;;;;;;4.30;3.30;;;20.00;1.00;;;;;;5035453;28;20542;-70
2023/08/17 04:37:49;;;;;;;4.10;2.80;;;20.00;1.00;;;;;;5037159;28;20484;-71
2023/08/17 04:40:16;;;;;;;4.60;2.80;;;20.00;1.00;;;;;;5039268;28;20476;-71
2023/08/17 04:42:44;;;;;;;5.70;3.33;;;20.10;1.00;;;;;;5032762;28;20935;-71
2023/08/17 04:45:11;;;;;;;3.90;3.50;;;20.10;1.00;;;;;;5033249;28;20460;-71
2023/08/17 04:47:39;;;;;;;6.57;3.80;;;20.10;1.00;;;;;;5035561;28;20472;-71
2023/08/17 04:50:08;;;;;;;4.20;3.43;;;20.10;1.00;;;;;;5039070;28;20483;-71
2023/08/17 04:52:35;;;;;;;4.53;3.40;;;20.20;1.00;;;;;;5035555;28;20476;-73
2023/08/17 04:55:02;;;;;;;3.77;3.47;;;20.20;1.00;;;;;;5034176;28;20552;-71
2023/08/17 04:57:28;;;;;;;2.97;2.60;;;20.30;1.00;;;;;;5036792;28;20523;-71
2023/08/17 04:59:55;;;;;;;4.40;3.30;;;20.30;1.00;;;;;;5034354;28;20589;-72
2023/08/17 05:02:22;;;;;;;5.57;3.30;;;20.40;1.00;;;;;;5032426;28;20648;-72
2023/08/17 05:04:51;;;;;;;3.90;2.70;;;20.40;1.00;;;;;;5033945;28;21133;-73
2023/08/17 05:07:18;;;;;;;7.43;4.10;;;20.50;1.00;;;;;;5035168;28;20468;-72
2023/08/17 05:09:45;;;;;;;4.20;3.27;;;20.50;1.00;;;;;;5039664;28;20459;-71
2023/08/17 05:12:13;;;;;;;6.27;4.50;;;20.60;1.00;;;;;;5036889;28;20485;-71
2023/08/17 05:14:40;;;;;;;8.17;4.03;;;20.60;1.00;;;;;;5036168;28;21002;-72
2023/08/17 05:17:06;;;;;;;4.13;2.83;;;20.60;1.00;;;;;;5035857;28;20475;-72
2023/08/17 05:19:33;;;;;;;4.00;3.70;;;20.80;1.00;;;;;;5039042;28;20593;-73
2023/08/17 05:22:02;;;;;;;4.70;3.60;;;20.90;1.00;;;;;;5025792;28;20541;-72
2023/08/17 05:24:29;;;;;;;8.23;3.63;;;20.90;1.00;;;;;;5037398;28;21041;-71
2023/08/17 05:26:56;;;;;;;5.33;4.27;;;20.90;1.00;;;;;;5038445;28;20501;-70
2023/08/17 05:29:22;;;;;;;4.77;3.93;;;21.00;1.00;;;;;;5038013;28;20462;-71
2023/08/17 05:31:49;;;;;;;6.20;3.87;;;21.10;1.00;;;;;;5034333;28;20625;-70
2023/08/17 05:34:17;;;;;;;4.63;4.10;;;21.10;1.00;;;;;;5034455;28;20929;-71
2023/08/17 05:36:43;;;;;;;4.30;3.23;;;21.10;1.00;;;;;;5038699;28;20534;-71
2023/08/17 05:39:12;;;;;;;3.60;3.30;;;21.20;1.00;;;;;;5040932;28;20903;-71
2023/08/17 05:41:39;;;;;;;4.57;3.13;;;21.30;1.00;;;;;;5019875;28;20459;-73
2023/08/17 05:44:07;;;;;;;4.23;3.07;;;21.40;1.00;;;;;;5039593;28;20603;-72
2023/08/17 05:46:34;;;;;;;4.87;3.47;;;21.50;1.00;;;;;;5041037;28;20559;-71
2023/08/17 05:49:01;;;;;;;3.43;3.13;;;21.50;1.00;;;;;;5036786;28;20538;-72
2023/08/17 05:51:28;;;;;;;4.80;3.70;;;21.60;1.00;;;;;;5028515;28;21055;-71
2023/08/17 05:53:56;;;;;;;5.33;2.63;;;21.60;1.00;;;;;;5037217;28;20465;-72
2023/08/17 05:56:24;;;;;;;4.93;3.00;;;21.70;1.00;;;;;;5038397;28;20534;-70
2023/08/17 05:58:51;;;;;;;3.87;3.37;;;21.70;1.00;;;;;;5032335;28;20549;-72
2023/08/17 06:01:18;;;;;;;4.60;3.30;;;21.70;1.00;;;;;;5031297;28;20467;-70
2023/08/17 06:03:45;;;;;;;3.53;2.57;;;21.80;1.00;;;;;;5028123;28;21314;-71
2023/08/17 06:06:13;;;;;;;4.90;2.90;;;21.80;1.00;;;;;;5030697;28;20484;-70
2023/08/17 06:08:39;;;;;;;3.83;3.23;;;21.90;1.00;;;;;;5029716;28;21035;-72
2023/08/17 06:11:07;;;;;;;6.10;3.50;;;22.00;1.00;;;;;;5037650;28;20461;-72
2023/08/17 06:13:36;;;;;;;4.20;2.63;;;22.00;1.00;;;;;;5036422;28;20479;-70
2023/08/17 06:16:03;;;;;;;3.53;3.00;;;22.10;1.00;;;;;;5036695;28;21067;-71
2023/08/17 06:18:30;;;;;;;2.70;2.50;;;22.10;1.00;;;;;;5036688;28;20463;-71
2023/08/17 06:20:57;;;;;;;3.33;3.03;;;22.00;1.00;;;;;;5038978;28;21477;-70
2023/08/17 06:23:25;;;;;;;3.43;2.87;;;21.90;1.00;;;;;;5032946;28;20498;-72
2023/08/17 06:25:52;;;;;;;3.70;3.30;;;21.80;1.00;;;;;;5031080;28;21020;-71
2023/08/17 06:28:19;;;;;;;3.10;2.80;;;21.80;1.00;;;;;;5034283;28;20491;-71
2023/08/17 06:30:47;;;;;;;3.27;2.97;;;21.70;1.00;;;;;;5028069;28;20467;-70
2023/08/17 06:33:14;;;;;;;3.30;3.10;;;21.60;1.00;;;;;;5033153;28;20917;-70
2023/08/17 06:35:41;;;;;;;3.40;3.10;;;21.60;1.00;;;;;;5035235;28;20472;-71
2023/08/17 06:38:08;;;;;;;3.97;3.40;;;21.60;1.00;;;;;;5035588;28;20563;-70
2023/08/17 06:40:35;;;;;;;6.23;3.17;;;21.70;1.00;;;;;;5031151;28;20533;-72
2023/08/17 06:43:02;;;;;;;5.87;3.57;;;21.70;1.00;;;;;;5035481;28;20495;-72
2023/08/17 06:45:44;;;;;;;4.27;3.70;;;21.90;1.00;;;;;;5068995;27;20656;-71
2023/08/17 06:48:11;;;;;;;4.47;3.77;;;22.00;1.00;;;;;;5076968;28;21326;-72
2023/08/17 06:50:38;;;;;;;5.90;4.17;;;22.20;1.00;;;;;;5066911;28;20537;-72
2023/08/17 06:53:06;;;;;;;4.63;3.70;;;22.20;1.00;;;;;;5068215;28;20462;-72
2023/08/17 06:55:32;;;;;;;6.63;4.00;;;22.30;1.00;;;;;;5069309;28;20472;-73
2023/08/17 06:57:59;;;;;;;7.47;4.10;;;22.30;1.00;;;;;;5053547;28;20633;-72
2023/08/17 07:00:26;;;;;;;4.10;3.80;;;22.40;1.00;;;;;;5060587;28;20547;-76
2023/08/17 07:02:56;;;;;;;6.73;3.50;;;22.30;1.00;;;;;;5061253;28;20480;-78
2023/08/17 07:05:23;;;;;;;4.40;3.50;;;22.40;1.00;;;;;;5066590;28;20978;-78
2023/08/17 07:07:50;;;;;;;5.47;3.60;;;22.50;1.00;;;;;;5050876;28;20464;-76
2023/08/17 07:10:17;;;;;;;4.53;3.73;;;22.50;1.00;;;;;;5059865;28;20470;-77
2023/08/17 07:12:44;;;;;;;5.40;3.70;;;22.50;1.00;;;;;;5062185;28;21053;-77
2023/08/17 07:15:12;;;;;;;5.03;3.60;;;22.70;1.00;;;;;;5066504;28;20631;-79
2023/08/17 07:17:39;;;;;;;5.03;3.30;;;22.90;1.00;;;;;;5055350;28;20463;-75
2023/08/17 07:20:09;;;;;;;3.53;3.20;;;23.00;1.00;;;;;;5055992;27;20534;-75
2023/08/17 07:22:36;;;;;;;5.07;3.50;;;23.20;1.00;;;;;;5062104;28;20477;-75
2023/08/17 07:25:04;;;;;;;5.60;4.20;;;23.40;1.00;;;;;;5061924;28;20647;-75
2023/08/17 07:27:33;;;;;;;5.00;3.50;;;23.60;1.00;;;;;;5069389;28;21280;-76
2023/08/17 07:30:00;;;;;;;4.30;3.40;;;23.50;1.00;;;;;;5073328;28;21077;-74
2023/08/17 07:32:27;;;;;;;4.23;2.73;;;23.40;1.00;;;;;;5070232;28;21508;-73
2023/08/17 07:34:54;;;;;;;4.63;3.90;;;23.00;1.00;;;;;;5066374;27;21040;-74
2023/08/17 07:37:22;;;;;;;6.43;3.57;;;23.00;1.00;;;;;;5072911;27;21084;-73
2023/08/17 07:39:49;;;;;;;5.00;3.60;;;23.10;1.00;;;;;;5069006;27;20854;-73
2023/08/17 07:42:16;;;;;;;5.80;3.93;;;23.00;1.00;;;;;;5072174;28;20880;-74
2023/08/17 07:44:43;;;;;;;3.73;3.43;;;23.00;1.00;;;;;;5066752;28;20481;-72
2023/08/17 07:47:10;;;;;;;5.17;3.93;;;23.10;1.00;;;;;;5067310;28;20522;-72
2023/08/17 07:49:37;;;;;;;6.73;3.63;;;23.20;1.00;;;;;;5070105;28;20481;-73
2023/08/17 07:52:04;;;;;;;4.10;3.70;;;23.30;1.00;;;;;;5072098;27;20455;-73
2023/08/17 07:54:33;;;;;;;3.90;3.23;;;23.40;1.00;;;;;;5063871;28;20485;-72
2023/08/17 07:57:00;;;;;;;6.00;3.20;;;23.50;1.00;;;;;;5044482;28;20464;-73
2023/08/17 07:59:27;;;;;;;4.63;3.33;;;23.50;1.00;;;;;;5054895;28;20470;-74
2023/08/17 08:01:54;;;;;;;5.27;3.50;;;23.60;1.00;;;;;;5042001;28;20886;-74
2023/08/17 08:04:22;;;;;;;3.60;3.20;;;23.70;1.00;;;;;;5042771;28;21026;-74
2023/08/17 08:06:52;;;;;;;6.27;4.43;;;23.70;1.00;;;;;;5046129;28;20506;-72
2023/08/17 08:09:22;;;;;;;3.10;2.90;;;23.70;1.00;;;;;;5054742;28;20977;-74
2023/08/17 08:11:50;;;;;;;5.83;3.63;;;23.70;1.00;;;;;;5050056;28;20474;-73
2023/08/17 08:14:18;;;;;;;11.47;4.90;;;23.90;1.00;;;;;;5026276;28;21402;-73
2023/08/17 08:16:45;;;;;;;5.83;3.53;;;24.10;1.00;;;;;;5056153;28;20542;-73
2023/08/17 08:19:12;;;;;;;6.33;4.13;;;24.30;1.00;;;;;;5058693;28;21364;-74
2023/08/17 08:21:39;;;;;;;4.00;3.70;;;24.30;1.00;;;;;;5060111;28;20503;-74
2023/08/17 08:24:07;;;;;;;5.23;3.80;;;24.40;1.00;;;;;;5057307;28;20481;-74
2023/08/17 08:26:34;;;;;;;4.20;3.73;;;24.30;1.00;;;;;;5060375;28;20488;-73
2023/08/17 08:29:02;;;;;;;5.47;3.60;;;24.40;1.00;;;;;;5059278;28;20453;-77
2023/08/17 08:31:29;;;;;;;4.53;4.20;;;24.50;1.00;;;;;;5060468;28;20501;-75
2023/08/17 08:33:56;;;;;;;3.93;3.63;;;24.50;1.00;;;;;;5042028;28;20474;-77
2023/08/17 08:36:24;;;;;;;9.60;8.07;;;24.50;1.00;;;;;;5051775;28;20462;-77
2023/08/17 08:38:51;;;;;;;3.50;3.20;;;24.70;1.00;;;;;;5052958;28;20457;-76
2023/08/17 08:41:18;;;;;;;4.43;3.97;;;24.90;1.00;;;;;;5048963;28;20459;-76
2023/08/17 08:43:45;;;;;;;4.30;3.90;;;25.30;1.00;;;;;;5043542;28;20467;-77
2023/08/17 08:46:16;;;;;;;4.80;3.70;;;25.50;1.00;;;;;;5044502;28;20478;-76
2023/08/17 08:48:47;;;;;;;6.37;4.57;;;25.40;1.00;;;;;;5053881;28;21059;-74
2023/08/17 08:51:17;;;;;;;6.00;3.73;;;25.40;1.00;;;;;;5038143;28;20449;-73
2023/08/17 08:53:46;;;;;;;4.63;4.23;;;25.30;1.00;;;;;;5033182;28;20556;-74
2023/08/17 08:56:14;;;;;;;4.20;3.80;;;25.10;1.00;;;;;;5042151;28;20479;-72
2023/08/17 08:58:43;;;;;;;8.20;4.27;;;24.90;1.00;;;;;;5049955;28;20512;-73
2023/08/17 09:01:11;;;;;;;6.63;4.10;;;24.70;1.00;;;;;;5045161;28;20560;-73
2023/08/17 09:03:40;;;;;;;6.60;4.20;;;24.70;1.00;;;;;;5037375;28;20509;-71
2023/08/17 09:06:08;;;;;;;9.70;4.40;;;24.30;1.00;;;;;;5052972;28;20455;-73
2023/08/17 09:08:35;;;;;;;5.10;4.60;;;24.20;1.00;;;;;;5054932;28;21207;-72
2023/08/17 09:11:03;;;;;;;5.70;4.63;;;24.20;1.00;;;;;;5056245;28;20471;-74
2023/08/17 09:13:30;;;;;;;6.07;4.07;;;24.20;1.00;;;;;;5056959;28;20994;-73
2023/08/17 09:16:00;;;;;;;5.10;4.70;;;24.20;1.00;;;;;;5050008;28;20464;-73
2023/08/17 09:18:27;;;;;;;5.30;4.83;;;24.20;1.00;;;;;;5052524;28;20513;-72
2023/08/17 09:20:55;;;;;;;4.53;4.10;;;24.20;1.00;;;;;;5054811;28;20489;-72
2023/08/17 09:23:26;;;;;;;8.83;5.10;;;24.00;1.00;;;;;;5057308;28;20534;-71
2023/08/17 09:25:57;;;;;;;5.90;4.47;;;24.00;1.00;;;;;;5053002;28;20863;-72
2023/08/17 09:28:25;;;;;;;5.90;4.33;;;24.20;1.00;;;;;;5037031;28;20516;-73
2023/08/17 09:30:53;;;;;;;4.50;4.10;;;24.40;1.00;;;;;;5052198;28;21043;-73
2023/08/17 09:33:21;;;;;;;7.30;5.10;;;24.70;1.00;;;;;;5048970;28;20579;-74
2023/08/17 09:35:49;;;;;;;4.57;4.20;;;25.10;1.00;;;;;;5056806;28;20673;-74
2023/08/17 09:38:19;;;;;;;6.13;5.33;;;25.30;1.00;;;;;;5056661;28;20511;-73
2023/08/17 09:40:47;;;;;;;4.47;4.07;;;25.90;1.00;;;;;;5053090;28;20495;-74
2023/08/17 09:43:15;;;;;;;4.90;4.50;;;26.60;1.00;;;;;;5050823;28;21021;-75
2023/08/17 09:45:46;;;;;;;6.03;4.87;;;27.10;1.00;;;;;;5003399;28;20457;-72
2023/08/17 09:48:17;;;;;;;4.40;3.90;;;27.40;1.00;;;;;;5023015;28;21050;-73
2023/08/17 09:50:44;;;;;;;5.60;4.23;;;27.20;1.00;;;;;;5023880;28;20466;-73
2023/08/17 09:53:14;;;;;;;4.87;4.47;;;27.50;1.00;;;;;;5032527;28;20896;-72
2023/08/17 09:55:43;;;;;;;7.07;4.47;;;26.60;1.00;;;;;;5016590;28;21050;-74
2023/08/17 09:58:14;;;;;;;8.67;4.90;;;26.60;1.00;;;;;;5019839;28;20485;-73
2023/08/17 10:00:45;;;;;;;4.10;3.70;;;26.80;1.00;;;;;;5019791;28;20469;-73
2023/08/17 10:03:15;;;;;;;4.10;3.80;;;26.90;1.00;;;;;;5030801;28;20462;-73
2023/08/17 10:05:44;;;;;;;6.23;5.20;;;27.10;1.00;;;;;;5002599;28;20462;-75
2023/08/17 10:08:12;;;;;;;4.93;4.00;;;27.40;1.00;;;;;;5017858;28;20457;-74
2023/08/17 10:10:43;;;;;;;4.77;4.37;;;27.60;1.00;;;;;;5005998;28;20626;-74
2023/08/17 10:13:13;;;;;;;7.43;5.13;;;27.70;1.00;;;;;;5013425;28;20472;-75
2023/08/17 10:15:48;;;;;;;7.03;4.50;;;27.20;1.00;;;;;;5013657;28;22399;-73
2023/08/17 10:18:30;;;;;;;6.83;6.13;;;26.90;1.00;;;;;;5014148;28;20915;-73
2023/08/17 10:21:04;;;;;;;5.87;4.93;;;26.40;1.00;;;;;;5011034;28;20584;-74
2023/08/17 10:23:31;;;;;;;6.60;4.80;;;26.20;1.00;;;;;;5010089;28;20959;-74
2023/08/17 10:26:03;;;;;;;5.80;5.17;;;25.70;1.00;;;;;;5023383;28;20474;-74
2023/08/17 10:28:31;;;;;;;5.50;5.00;;;25.30;1.00;;;;;;5024301;28;20528;-74
2023/08/17 10:30:59;;;;;;;5.70;5.20;;;25.20;1.00;;;;;;5015597;28;20471;-75
2023/08/17 10:33:27;;;;;;;7.03;5.70;;;25.10;1.00;;;;;;5020702;28;20496;-75
2023/08/17 10:35:55;;;;;;;5.63;5.13;;;24.90;1.00;;;;;;5020486;28;20459;-75
2023/08/17 10:38:22;;;;;;;6.07;5.50;;;25.00;1.00;;;;;;5022570;28;21048;-74
2023/08/17 10:41:11;;;;;;;6.80;4.77;;;25.30;1.00;;;;;;5013733;28;20500;-74
2023/08/17 10:43:56;;;;;;;5.30;4.90;;;25.70;1.00;;;;;;5028173;28;20528;-75
2023/08/17 10:46:32;;;;;;;5.70;5.13;;;26.10;1.00;;;;;;5054075;28;20523;-75
2023/08/17 10:49:03;;;;;;;5.57;4.77;;;26.90;1.00;;;;;;5046587;28;20469;-74
2023/08/17 10:51:30;;;;;;;5.60;5.10;;;27.30;1.00;;;;;;5048722;28;20468;-73
2023/08/17 10:54:00;;;;;;;5.60;5.10;;;27.50;1.00;;;;;;5055620;28;21107;-74
2023/08/17 10:56:30;;;;;;;5.33;4.90;;;28.70;1.00;;;;;;5051196;28;20512;-73
2023/08/17 10:59:01;;;;;;;4.70;4.20;;;30.00;1.00;;;;;;5051118;28;20460;-75
2023/08/17 11:01:36;;;;;;;4.53;4.17;;;31.70;1.00;;;;;;5043298;28;20465;-75
2023/08/17 11:04:18;;;;;;;4.50;4.20;;;33.20;1.00;;;;;;5030498;28;20934;-74
2023/08/17 11:06:45;;;;;;;5.93;4.60;;;34.50;1.00;;;;;;5049845;28;20471;-74
2023/08/17 11:09:12;;;;;;;5.33;4.90;;;35.00;1.00;;;;;;5045319;28;20461;-73
2023/08/17 11:11:49;;;;;;;5.00;4.50;;;35.70;1.00;;;;;;5051642;28;20477;-75
2023/08/17 11:14:15;;;;;;;5.30;4.80;;;36.20;1.00;;;;;;5058173;28;20990;-75
2023/08/17 11:16:42;;;;;;;4.83;4.53;;;36.70;1.00;;;;;;5042366;28;20449;-74
2023/08/17 11:19:09;;;;;;;4.93;4.40;;;37.00;1.00;;;;;;5031621;28;20455;-73
2023/08/17 11:21:37;;;;;;;4.27;3.97;;;37.40;1.00;;;;;;5037159;28;20550;-73
2023/08/17 11:24:09;;;;;;;5.50;5.00;;;37.70;1.00;;;;;;5017931;28;20848;-75
2023/08/17 11:26:37;;;;;;;4.53;4.20;;;38.00;1.00;;;;;;5050112;28;20484;-75
2023/08/17 11:29:06;;;;;;;4.50;4.20;;;37.60;1.00;;;;;;5049601;28;20491;-75
2023/08/17 11:31:33;;;;;;;4.80;4.47;;;37.40;1.00;;;;;;5052992;28;20491;-74
2023/08/17 11:34:03;;;;;;;5.60;4.47;;;37.60;1.00;;;;;;5052385;28;20465;-74
2023/08/17 11:36:29;;;;;;;6.00;5.40;;;36.80;1.00;;;;;;5052678;28;20448;-75
2023/08/17 11:38:56;;;;;;;6.50;6.00;;;35.30;1.00;;;;;;5057768;28;20458;-73
2023/08/17 11:41:26;;;;;;;5.73;5.23;;;33.50;1.00;;;;;;5053629;28;20460;-73
2023/08/17 11:43:55;;;;;;;6.10;5.57;;;32.20;1.00;;;;;;5050518;27;20476;-73
2023/08/17 11:46:25;;;;;;;15.70;14.40;;;31.10;1.00;;;;;;5057041;28;21030;-73
2023/08/17 11:48:53;;;;;;;6.20;5.60;;;30.20;1.00;;;;;;5057932;28;20950;-73
2023/08/17 11:51:29;;;;;;;6.53;5.80;;;30.00;1.00;;;;;;5064131;28;20455;-73
2023/08/17 11:54:00;;;;;;;5.93;5.43;;;29.40;1.00;;;;;;5058943;27;20925;-73
2023/08/17 11:56:27;;;;;;;5.93;5.47;;;29.10;1.00;;;;;;5041065;28;20499;-72
2023/08/17 11:58:54;;;;;;;6.93;5.57;;;29.00;1.00;;;;;;5053037;28;20510;-75
2023/08/17 12:01:25;;;;;;;6.50;6.00;;;28.90;1.00;;;;;;5058800;28;20520;-76
2023/08/17 12:03:52;;;;;;;5.60;5.20;;;28.70;1.00;;;;;;5052584;28;20476;-77
2023/08/17 12:06:19;;;;;;;5.60;5.20;;;28.70;1.00;;;;;;5052799;28;20915;-77
2023/08/17 12:08:48;;;;;;;6.17;5.77;;;28.80;1.00;;;;;;5055192;28;20464;-78
2023/08/17 12:11:17;;;;;;;6.50;5.90;;;29.20;1.00;;;;;;5055064;28;20467;-78
2023/08/17 12:13:45;;;;;;;6.40;6.00;;;29.80;1.00;;;;;;5038957;28;20475;-76
2023/08/17 12:16:16;;;;;;;6.23;5.73;;;30.20;1.00;;;;;;5057666;28;20448;-73
2023/08/17 12:18:46;;;;;;;5.60;5.10;;;30.60;1.00;;;;;;5057943;28;20529;-73
2023/08/17 12:21:13;;;;;;;11.50;10.53;;;30.90;1.00;;;;;;5061713;28;20474;-74
2023/08/17 12:23:41;;;;;;;6.10;5.60;;;31.40;1.00;;;;;;5060718;28;20999;-73
2023/08/17 12:26:08;;;;;;;5.40;5.00;;;31.90;1.00;;;;;;5060197;28;20481;-74
2023/08/17 12:28:35;;;;;;;5.70;5.30;;;33.10;1.00;;;;;;5065428;28;20517;-72
2023/08/17 12:31:04;;;;;;;6.17;5.67;;;34.80;1.00;;;;;;5053188;28;20543;-74
2023/08/17 12:33:31;;;;;;;6.70;6.20;;;36.20;1.00;;;;;;5060990;28;21049;-74
2023/08/17 12:35:59;;;;;;;5.27;4.77;;;36.20;1.00;;;;;;5059265;28;20976;-75
2023/08/17 12:38:26;;;;;;;5.80;5.40;;;35.80;1.00;;;;;;5053248;28;20480;-73
2023/08/17 12:40:54;;;;;;;6.27;5.80;;;35.40;1.00;;;;;;5058474;28;21166;-75
2023/08/17 12:43:21;;;;;;;5.40;4.90;;;35.10;1.00;;;;;;5059045;28;20530;-72
2023/08/17 12:45:49;;;;;;;5.43;5.03;;;35.40;1.00;;;;;;5060881;28;20463;-73
2023/08/17 12:48:16;;;;;;;6.20;5.70;;;35.10;1.00;;;;;;5061887;28;20975;-73
2023/08/17 12:50:43;;;;;;;6.27;5.80;;;34.90;1.00;;;;;;5053889;27;20612;-74
2023/08/17 12:53:13;;;;;;;6.43;5.83;;;35.20;1.00;;;;;;5064151;28;20537;-74
2023/08/17 12:55:40;;;;;;;8.17;6.43;;;35.00;1.00;;;;;;5051810;28;21031;-74
2023/08/17 12:58:09;;;;;;;6.40;6.00;;;34.30;1.00;;;;;;5047976;28;20623;-74
2023/08/17 13:00:36;;;;;;;5.80;5.40;;;33.70;1.00;;;;;;5044768;28;20490;-75
2023/08/17 13:03:06;;;;;;;6.97;6.40;;;34.50;1.00;;;;;;5052570;28;20473;-74